sensor_id;sensor_type;location;lat;lon;timestamp;temperature;humidity
11067;DHT22;29763;50.904;5.530;2022-07-11T00:03:26;15.40;99.90
11067;DHT22;29763;50.904;5.530;2022-07-11T00:06:20;15.40;99.90
11067;DHT22;29763;50.904;5.530;2022-07-11T00:12:24;15.30;99.90
11067;DHT22;29763;50.904;5.530;2022-07-11T00:15:11;15.30;99.90
11067;DHT22;29763;50.904;5.530;2022-07-11T00:17:38;15.30;99.90
11067;DHT22;29763;50.904;5.530;2022-07-11T00:20:47;15.30;99.90
11067;DHT22;29763;50.904;5.530;2022-07-11T00:23:23;15.20;99.90
11067;DHT22;29763;50.904;5.530;2022-07-11T00:28:47;15.30;99.90
11067;DHT22;29763;50.904;5.530;2022-07-11T00:31:20;15.30;99.90
11067;DHT22;29763;50.904;5.530;2022-07-11T00:33:46;15.20;99.90
11067;DHT22;29763;50.904;5.530;2022-07-11T00:36:16;15.10;99.90
11067;DHT22;29763;50.904;5.530;2022-07-11T00:38:49;15.10;99.90
11067;DHT22;29763;50.904;5.530;2022-07-11T00:41:18;15.10;99.90
11067;DHT22;29763;50.904;5.530;2022-07-11T00:43:56;15.00;99.90
11067;DHT22;29763;50.904;5.530;2022-07-11T00:46:23;15.00;99.90
11067;DHT22;29763;50.904;5.530;2022-07-11T00:48:50;15.00;99.90
11067;DHT22;29763;50.904;5.530;2022-07-11T00:51:20;14.90;99.90
11067;DHT22;29763;50.904;5.530;2022-07-11T00:54:02;14.80;99.90
11067;DHT22;29763;50.904;5.530;2022-07-11T00:56:36;14.90;99.90
11067;DHT22;29763;50.904;5.530;2022-07-11T00:59:02;14.80;99.90
11067;DHT22;29763;50.904;5.530;2022-07-11T01:01:33;14.80;99.90
11067;DHT22;29763;50.904;5.530;2022-07-11T01:04:09;14.70;99.90
11067;DHT22;29763;50.904;5.530;2022-07-11T01:07:02;14.70;99.90
11067;DHT22;29763;50.904;5.530;2022-07-11T01:09:29;14.70;99.90
11067;DHT22;29763;50.904;5.530;2022-07-11T01:11:58;14.60;99.90
11067;DHT22;29763;50.904;5.530;2022-07-11T01:14:33;14.60;99.90
11067;DHT22;29763;50.904;5.530;2022-07-11T01:17:04;14.50;99.90
11067;DHT22;29763;50.904;5.530;2022-07-11T01:19:38;14.40;99.90
11067;DHT22;29763;50.904;5.530;2022-07-11T01:22:21;14.40;99.90
11067;DHT22;29763;50.904;5.530;2022-07-11T01:25:01;14.30;99.90
11067;DHT22;29763;50.904;5.530;2022-07-11T01:27:27;14.30;99.90
11067;DHT22;29763;50.904;5.530;2022-07-11T01:29:55;14.30;99.90
11067;DHT22;29763;50.904;5.530;2022-07-11T01:32:27;14.30;99.90
11067;DHT22;29763;50.904;5.530;2022-07-11T01:34:56;14.20;99.90
11067;DHT22;29763;50.904;5.530;2022-07-11T01:37:38;14.20;99.90
11067;DHT22;29763;50.904;5.530;2022-07-11T01:40:18;14.20;99.90
11067;DHT22;29763;50.904;5.530;2022-07-11T01:43:03;14.20;99.90
11067;DHT22;29763;50.904;5.530;2022-07-11T01:45:44;14.20;99.90
11067;DHT22;29763;50.904;5.530;2022-07-11T01:48:16;14.20;99.90
11067;DHT22;29763;50.904;5.530;2022-07-11T01:51:03;14.10;99.90
11067;DHT22;29763;50.904;5.530;2022-07-11T01:53:33;14.10;99.90
11067;DHT22;29763;50.904;5.530;2022-07-11T01:56:06;14.10;99.90
11067;DHT22;29763;50.904;5.530;2022-07-11T01:58:52;14.10;99.90
11067;DHT22;29763;50.904;5.530;2022-07-11T02:01:36;14.10;99.90
11067;DHT22;29763;50.904;5.530;2022-07-11T02:07:31;14.10;99.90
11067;DHT22;29763;50.904;5.530;2022-07-11T02:13:42;14.00;99.90
11067;DHT22;29763;50.904;5.530;2022-07-11T02:16:24;13.90;99.90
11067;DHT22;29763;50.904;5.530;2022-07-11T02:22:28;13.90;99.90
11067;DHT22;29763;50.904;5.530;2022-07-11T02:25:24;13.90;99.90
11067;DHT22;29763;50.904;5.530;2022-07-11T02:28:03;13.90;99.90
11067;DHT22;29763;50.904;5.530;2022-07-11T02:30:49;13.90;99.90
11067;DHT22;29763;50.904;5.530;2022-07-11T02:33:53;13.80;99.90
11067;DHT22;29763;50.904;5.530;2022-07-11T02:36:29;13.80;99.90
11067;DHT22;29763;50.904;5.530;2022-07-11T02:42:17;13.80;99.90
11067;DHT22;29763;50.904;5.530;2022-07-11T02:45:39;13.70;99.90
11067;DHT22;29763;50.904;5.530;2022-07-11T02:55:21;13.70;99.90
11067;DHT22;29763;50.904;5.530;2022-07-11T02:58:37;13.60;99.90
11067;DHT22;29763;50.904;5.530;2022-07-11T03:01:42;13.60;99.90
11067;DHT22;29763;50.904;5.530;2022-07-11T03:04:45;13.60;99.90
11067;DHT22;29763;50.904;5.530;2022-07-11T03:10:43;13.50;99.90
11067;DHT22;29763;50.904;5.530;2022-07-11T03:13:30;13.50;99.90
11067;DHT22;29763;50.904;5.530;2022-07-11T03:16:27;13.50;99.90
11067;DHT22;29763;50.904;5.530;2022-07-11T03:19:18;13.40;99.90
11067;DHT22;29763;50.904;5.530;2022-07-11T03:22:28;13.40;99.90
11067;DHT22;29763;50.904;5.530;2022-07-11T03:28:30;13.40;99.90
11067;DHT22;29763;50.904;5.530;2022-07-11T03:34:26;13.30;99.90
11067;DHT22;29763;50.904;5.530;2022-07-11T03:37:30;13.30;99.90
11067;DHT22;29763;50.904;5.530;2022-07-11T03:40:42;13.30;99.90
11067;DHT22;29763;50.904;5.530;2022-07-11T03:43:27;13.30;99.90
11067;DHT22;29763;50.904;5.530;2022-07-11T03:45:58;13.30;99.90
11067;DHT22;29763;50.904;5.530;2022-07-11T03:48:38;13.30;99.90
11067;DHT22;29763;50.904;5.530;2022-07-11T03:51:27;13.30;99.90
11067;DHT22;29763;50.904;5.530;2022-07-11T03:54:57;13.30;99.90
11067;DHT22;29763;50.904;5.530;2022-07-11T04:00:58;13.20;99.90
11067;DHT22;29763;50.904;5.530;2022-07-11T04:04:00;13.20;99.90
11067;DHT22;29763;50.904;5.530;2022-07-11T04:06:35;13.20;99.90
11067;DHT22;29763;50.904;5.530;2022-07-11T04:12:54;13.20;99.90
11067;DHT22;29763;50.904;5.530;2022-07-11T04:18:55;13.30;99.90
11067;DHT22;29763;50.904;5.530;2022-07-11T04:22:11;13.30;99.90
11067;DHT22;29763;50.904;5.530;2022-07-11T04:24:47;13.30;99.90
11067;DHT22;29763;50.904;5.530;2022-07-11T04:27:46;13.30;99.90
11067;DHT22;29763;50.904;5.530;2022-07-11T04:30:24;13.30;99.90
11067;DHT22;29763;50.904;5.530;2022-07-11T04:32:55;13.30;99.90
11067;DHT22;29763;50.904;5.530;2022-07-11T04:36:01;13.40;99.90
11067;DHT22;29763;50.904;5.530;2022-07-11T04:38:50;13.50;99.90
11067;DHT22;29763;50.904;5.530;2022-07-11T04:41:43;13.50;99.90
11067;DHT22;29763;50.904;5.530;2022-07-11T04:44:50;13.70;99.90
11067;DHT22;29763;50.904;5.530;2022-07-11T04:47:41;13.90;99.90
11067;DHT22;29763;50.904;5.530;2022-07-11T04:50:34;14.00;99.90
11067;DHT22;29763;50.904;5.530;2022-07-11T04:53:37;14.30;99.90
11067;DHT22;29763;50.904;5.530;2022-07-11T04:56:18;14.40;99.90
11067;DHT22;29763;50.904;5.530;2022-07-11T04:58:50;14.50;99.90
11067;DHT22;29763;50.904;5.530;2022-07-11T05:01:28;14.70;99.90
11067;DHT22;29763;50.904;5.530;2022-07-11T05:08:03;15.20;99.90
11067;DHT22;29763;50.904;5.530;2022-07-11T05:10:49;15.50;99.90
11067;DHT22;29763;50.904;5.530;2022-07-11T05:13:37;15.70;99.90
11067;DHT22;29763;50.904;5.530;2022-07-11T05:16:06;15.90;99.90
11067;DHT22;29763;50.904;5.530;2022-07-11T05:18:51;16.00;99.90
11067;DHT22;29763;50.904;5.530;2022-07-11T05:21:25;16.00;99.90
11067;DHT22;29763;50.904;5.530;2022-07-11T05:24:05;16.10;99.90
11067;DHT22;29763;50.904;5.530;2022-07-11T05:26:32;16.20;99.90
11067;DHT22;29763;50.904;5.530;2022-07-11T05:29:08;16.30;99.90
11067;DHT22;29763;50.904;5.530;2022-07-11T05:31:36;16.30;99.90
11067;DHT22;29763;50.904;5.530;2022-07-11T05:34:11;16.40;99.90
11067;DHT22;29763;50.904;5.530;2022-07-11T05:36:49;16.40;99.90
11067;DHT22;29763;50.904;5.530;2022-07-11T05:39:39;16.40;99.90
11067;DHT22;29763;50.904;5.530;2022-07-11T05:42:20;16.50;99.90
11067;DHT22;29763;50.904;5.530;2022-07-11T05:45:07;16.50;99.90
11067;DHT22;29763;50.904;5.530;2022-07-11T05:47:36;16.50;99.90
11067;DHT22;29763;50.904;5.530;2022-07-11T05:50:35;16.40;99.90
11067;DHT22;29763;50.904;5.530;2022-07-11T05:53:01;16.50;99.90
11067;DHT22;29763;50.904;5.530;2022-07-11T05:56:04;16.60;99.90
11067;DHT22;29763;50.904;5.530;2022-07-11T05:58:33;16.70;99.90
11067;DHT22;29763;50.904;5.530;2022-07-11T06:01:18;16.90;99.90
11067;DHT22;29763;50.904;5.530;2022-07-11T06:04:03;17.00;99.90
11067;DHT22;29763;50.904;5.530;2022-07-11T06:06:38;17.20;99.90
11067;DHT22;29763;50.904;5.530;2022-07-11T06:09:43;17.50;99.90
11067;DHT22;29763;50.904;5.530;2022-07-11T06:12:58;17.70;99.90
11067;DHT22;29763;50.904;5.530;2022-07-11T06:15:45;17.90;99.90
11067;DHT22;29763;50.904;5.530;2022-07-11T06:18:20;18.10;99.90
11067;DHT22;29763;50.904;5.530;2022-07-11T06:21:23;18.20;99.90
11067;DHT22;29763;50.904;5.530;2022-07-11T06:24:06;18.20;99.90
11067;DHT22;29763;50.904;5.530;2022-07-11T06:26:35;18.20;99.90
11067;DHT22;29763;50.904;5.530;2022-07-11T06:32:41;18.20;99.90
11067;DHT22;29763;50.904;5.530;2022-07-11T06:35:44;18.30;99.90
11067;DHT22;29763;50.904;5.530;2022-07-11T06:41:51;18.40;99.90
11067;DHT22;29763;50.904;5.530;2022-07-11T06:51:37;18.50;99.90
11067;DHT22;29763;50.904;5.530;2022-07-11T06:54:44;18.50;99.90
11067;DHT22;29763;50.904;5.530;2022-07-11T07:00:29;18.70;99.90
11067;DHT22;29763;50.904;5.530;2022-07-11T07:03:26;18.90;99.90
11067;DHT22;29763;50.904;5.530;2022-07-11T07:06:32;19.00;99.90
11067;DHT22;29763;50.904;5.530;2022-07-11T07:12:39;19.20;99.90
11067;DHT22;29763;50.904;5.530;2022-07-11T07:18:48;19.20;99.90
11067;DHT22;29763;50.904;5.530;2022-07-11T07:21:30;19.20;99.90
11067;DHT22;29763;50.904;5.530;2022-07-11T07:24:13;19.30;99.90
11067;DHT22;29763;50.904;5.530;2022-07-11T07:27:25;19.20;99.90
11067;DHT22;29763;50.904;5.530;2022-07-11T07:36:32;19.20;99.90
11067;DHT22;29763;50.904;5.530;2022-07-11T07:39:30;19.20;99.90
11067;DHT22;29763;50.904;5.530;2022-07-11T07:42:17;19.30;99.90
11067;DHT22;29763;50.904;5.530;2022-07-11T07:44:51;19.40;99.90
11067;DHT22;29763;50.904;5.530;2022-07-11T07:47:23;19.60;99.90
11067;DHT22;29763;50.904;5.530;2022-07-11T08:00:02;20.40;99.90
11067;DHT22;29763;50.904;5.530;2022-07-11T08:05:42;20.80;99.90
11067;DHT22;29763;50.904;5.530;2022-07-11T08:08:29;20.80;99.90
11067;DHT22;29763;50.904;5.530;2022-07-11T08:11:09;21.00;99.90
11067;DHT22;29763;50.904;5.530;2022-07-11T08:17:52;21.30;99.90
11067;DHT22;29763;50.904;5.530;2022-07-11T08:21:10;21.30;99.90
11067;DHT22;29763;50.904;5.530;2022-07-11T08:24:25;21.10;99.90
11067;DHT22;29763;50.904;5.530;2022-07-11T08:30:16;21.00;99.90
11067;DHT22;29763;50.904;5.530;2022-07-11T08:33:23;21.00;99.90
11067;DHT22;29763;50.904;5.530;2022-07-11T08:43:51;20.90;99.90
11067;DHT22;29763;50.904;5.530;2022-07-11T08:46:43;20.90;99.90
11067;DHT22;29763;50.904;5.530;2022-07-11T08:50:04;20.90;99.90
11067;DHT22;29763;50.904;5.530;2022-07-11T08:56:02;20.90;99.90
11067;DHT22;29763;50.904;5.530;2022-07-11T08:58:54;20.90;99.90
11067;DHT22;29763;50.904;5.530;2022-07-11T09:02:00;20.80;99.90
11067;DHT22;29763;50.904;5.530;2022-07-11T09:04:30;20.80;99.90
11067;DHT22;29763;50.904;5.530;2022-07-11T09:07:28;20.70;99.90
11067;DHT22;29763;50.904;5.530;2022-07-11T09:10:02;20.70;99.90
11067;DHT22;29763;50.904;5.530;2022-07-11T09:13:16;20.70;99.90
11067;DHT22;29763;50.904;5.530;2022-07-11T09:19:43;20.90;99.90
11067;DHT22;29763;50.904;5.530;2022-07-11T09:22:22;21.00;99.90
11067;DHT22;29763;50.904;5.530;2022-07-11T09:28:06;21.10;99.90
11067;DHT22;29763;50.904;5.530;2022-07-11T09:31:17;21.20;99.90
11067;DHT22;29763;50.904;5.530;2022-07-11T09:34:28;21.20;99.90
11067;DHT22;29763;50.904;5.530;2022-07-11T09:37:21;21.30;99.90
11067;DHT22;29763;50.904;5.530;2022-07-11T09:46:45;21.20;99.90
11067;DHT22;29763;50.904;5.530;2022-07-11T09:49:50;21.40;99.90
11067;DHT22;29763;50.904;5.530;2022-07-11T09:52:58;21.50;99.90
11067;DHT22;29763;50.904;5.530;2022-07-11T09:55:50;21.70;99.90
11067;DHT22;29763;50.904;5.530;2022-07-11T09:58:36;21.80;99.90
11067;DHT22;29763;50.904;5.530;2022-07-11T10:01:33;21.70;99.90
11067;DHT22;29763;50.904;5.530;2022-07-11T10:07:56;21.60;99.90
11067;DHT22;29763;50.904;5.530;2022-07-11T10:10:47;21.40;99.90
11067;DHT22;29763;50.904;5.530;2022-07-11T10:13:53;21.30;99.90
11067;DHT22;29763;50.904;5.530;2022-07-11T10:26:01;21.10;99.90
11067;DHT22;29763;50.904;5.530;2022-07-11T10:29:02;21.20;99.90
11067;DHT22;29763;50.904;5.530;2022-07-11T10:38:04;21.20;99.90
11067;DHT22;29763;50.904;5.530;2022-07-11T10:40:59;21.50;99.90
11067;DHT22;29763;50.904;5.530;2022-07-11T10:43:55;21.60;99.90
11067;DHT22;29763;50.904;5.530;2022-07-11T11:35:42;23.70;99.90
11067;DHT22;29763;50.904;5.530;2022-07-11T11:38:09;23.70;99.90
11067;DHT22;29763;50.904;5.530;2022-07-11T11:40:35;23.50;99.90
11067;DHT22;29763;50.904;5.530;2022-07-11T11:43:01;23.30;99.90
11067;DHT22;29763;50.904;5.530;2022-07-11T11:45:27;23.30;99.90
11067;DHT22;29763;50.904;5.530;2022-07-11T11:47:52;23.30;99.90
11067;DHT22;29763;50.904;5.530;2022-07-11T11:50:18;23.40;99.90
11067;DHT22;29763;50.904;5.530;2022-07-11T11:52:45;23.20;99.90
11067;DHT22;29763;50.904;5.530;2022-07-11T11:55:10;23.30;99.90
11067;DHT22;29763;50.904;5.530;2022-07-11T11:57:38;23.40;99.90
11067;DHT22;29763;50.904;5.530;2022-07-11T12:00:23;23.40;99.90
11067;DHT22;29763;50.904;5.530;2022-07-11T12:02:53;23.50;99.90
11067;DHT22;29763;50.904;5.530;2022-07-11T12:05:19;23.80;99.90
11067;DHT22;29763;50.904;5.530;2022-07-11T12:07:44;24.00;99.90
11067;DHT22;29763;50.904;5.530;2022-07-11T12:10:10;24.20;99.90
11067;DHT22;29763;50.904;5.530;2022-07-11T12:12:36;24.50;99.90
11067;DHT22;29763;50.904;5.530;2022-07-11T12:15:27;24.60;99.90
11067;DHT22;29763;50.904;5.530;2022-07-11T12:17:56;24.70;99.90
11067;DHT22;29763;50.904;5.530;2022-07-11T12:20:39;24.70;99.90
11067;DHT22;29763;50.904;5.530;2022-07-11T12:23:07;24.60;99.90
11067;DHT22;29763;50.904;5.530;2022-07-11T12:25:34;24.50;99.90
11067;DHT22;29763;50.904;5.530;2022-07-11T12:28:00;24.50;99.90
11067;DHT22;29763;50.904;5.530;2022-07-11T12:30:26;24.30;99.90
11067;DHT22;29763;50.904;5.530;2022-07-11T12:33:12;24.40;99.90
11067;DHT22;29763;50.904;5.530;2022-07-11T12:35:53;24.50;99.90
11067;DHT22;29763;50.904;5.530;2022-07-11T12:38:19;24.60;99.90
11067;DHT22;29763;50.904;5.530;2022-07-11T12:41:03;24.60;99.90
11067;DHT22;29763;50.904;5.530;2022-07-11T12:43:42;24.60;99.90
11067;DHT22;29763;50.904;5.530;2022-07-11T12:46:28;24.50;99.90
11067;DHT22;29763;50.904;5.530;2022-07-11T12:48:54;24.50;99.90
11067;DHT22;29763;50.904;5.530;2022-07-11T12:51:47;24.40;99.90
11067;DHT22;29763;50.904;5.530;2022-07-11T12:54:16;24.10;99.90
11067;DHT22;29763;50.904;5.530;2022-07-11T12:56:53;23.90;99.90
11067;DHT22;29763;50.904;5.530;2022-07-11T12:59:23;23.70;99.90
11067;DHT22;29763;50.904;5.530;2022-07-11T13:04:39;23.90;99.90
11067;DHT22;29763;50.904;5.530;2022-07-11T13:10:12;24.50;99.90
11067;DHT22;29763;50.904;5.530;2022-07-11T13:12:39;24.90;99.90
11067;DHT22;29763;50.904;5.530;2022-07-11T13:15:07;25.00;99.90
11067;DHT22;29763;50.904;5.530;2022-07-11T13:17:38;25.10;99.90
11067;DHT22;29763;50.904;5.530;2022-07-11T13:20:06;25.10;99.90
11067;DHT22;29763;50.904;5.530;2022-07-11T13:22:33;25.00;99.90
11067;DHT22;29763;50.904;5.530;2022-07-11T13:24:58;24.80;99.90
11067;DHT22;29763;50.904;5.530;2022-07-11T13:27:24;24.60;99.90
11067;DHT22;29763;50.904;5.530;2022-07-11T13:29:50;24.50;99.90
11067;DHT22;29763;50.904;5.530;2022-07-11T13:32:15;24.60;99.90
11067;DHT22;29763;50.904;5.530;2022-07-11T13:34:41;24.80;99.90
11067;DHT22;29763;50.904;5.530;2022-07-11T13:37:07;24.90;99.90
11067;DHT22;29763;50.904;5.530;2022-07-11T13:39:33;24.80;99.90
11067;DHT22;29763;50.904;5.530;2022-07-11T13:41:59;24.60;99.90
11067;DHT22;29763;50.904;5.530;2022-07-11T13:44:25;24.40;99.90
11067;DHT22;29763;50.904;5.530;2022-07-11T13:46:51;24.40;99.90
11067;DHT22;29763;50.904;5.530;2022-07-11T13:49:17;24.50;99.90
11067;DHT22;29763;50.904;5.530;2022-07-11T13:51:43;24.80;99.90
11067;DHT22;29763;50.904;5.530;2022-07-11T13:54:08;25.20;99.90
11067;DHT22;29763;50.904;5.530;2022-07-11T13:56:34;25.60;99.90
11067;DHT22;29763;50.904;5.530;2022-07-11T13:59:00;26.00;99.90
11067;DHT22;29763;50.904;5.530;2022-07-11T14:01:26;26.30;99.90
11067;DHT22;29763;50.904;5.530;2022-07-11T14:03:52;26.40;99.90
11067;DHT22;29763;50.904;5.530;2022-07-11T14:06:17;26.20;99.90
11067;DHT22;29763;50.904;5.530;2022-07-11T14:08:43;25.80;99.90
11067;DHT22;29763;50.904;5.530;2022-07-11T14:11:09;25.60;99.90
11067;DHT22;29763;50.904;5.530;2022-07-11T14:13:34;25.70;99.90
11067;DHT22;29763;50.904;5.530;2022-07-11T14:16:00;25.90;99.90
11067;DHT22;29763;50.904;5.530;2022-07-11T14:18:27;26.40;99.90
11067;DHT22;29763;50.904;5.530;2022-07-11T14:20:53;26.70;99.90
11067;DHT22;29763;50.904;5.530;2022-07-11T14:23:21;26.40;99.90
11067;DHT22;29763;50.904;5.530;2022-07-11T14:25:48;26.50;99.90
11067;DHT22;29763;50.904;5.530;2022-07-11T14:28:13;26.90;99.90
11067;DHT22;29763;50.904;5.530;2022-07-11T14:30:40;27.40;99.90
11067;DHT22;29763;50.904;5.530;2022-07-11T14:33:05;27.60;99.90
11067;DHT22;29763;50.904;5.530;2022-07-11T14:35:31;27.20;99.90
11067;DHT22;29763;50.904;5.530;2022-07-11T14:37:57;26.90;99.90
11067;DHT22;29763;50.904;5.530;2022-07-11T14:40:23;26.70;99.90
11067;DHT22;29763;50.904;5.530;2022-07-11T14:42:50;26.40;99.90
11067;DHT22;29763;50.904;5.530;2022-07-11T14:45:17;26.40;99.90
11067;DHT22;29763;50.904;5.530;2022-07-11T14:47:43;26.80;99.90
11067;DHT22;29763;50.904;5.530;2022-07-11T14:50:09;27.30;99.90
11067;DHT22;29763;50.904;5.530;2022-07-11T14:52:35;27.50;99.90
11067;DHT22;29763;50.904;5.530;2022-07-11T14:55:00;27.40;99.90
11067;DHT22;29763;50.904;5.530;2022-07-11T14:57:26;27.20;99.90
11067;DHT22;29763;50.904;5.530;2022-07-11T14:59:52;27.10;99.90
11067;DHT22;29763;50.904;5.530;2022-07-11T15:02:18;27.00;99.90
11067;DHT22;29763;50.904;5.530;2022-07-11T15:05:03;27.10;99.90
11067;DHT22;29763;50.904;5.530;2022-07-11T15:07:29;27.70;99.90
11067;DHT22;29763;50.904;5.530;2022-07-11T15:10:13;27.80;99.90
11067;DHT22;29763;50.904;5.530;2022-07-11T15:12:57;27.80;99.90
11067;DHT22;29763;50.904;5.530;2022-07-11T15:15:23;27.80;99.90
11067;DHT22;29763;50.904;5.530;2022-07-11T15:17:48;27.50;99.90
11067;DHT22;29763;50.904;5.530;2022-07-11T15:20:14;27.50;99.90
11067;DHT22;29763;50.904;5.530;2022-07-11T15:22:40;27.80;99.90
11067;DHT22;29763;50.904;5.530;2022-07-11T15:25:06;28.10;99.90
11067;DHT22;29763;50.904;5.530;2022-07-11T15:27:31;28.10;99.90
11067;DHT22;29763;50.904;5.530;2022-07-11T15:29:57;27.80;99.90
11067;DHT22;29763;50.904;5.530;2022-07-11T15:32:23;27.30;99.90
11067;DHT22;29763;50.904;5.530;2022-07-11T15:34:49;26.80;99.90
11067;DHT22;29763;50.904;5.530;2022-07-11T15:37:14;26.50;99.90
11067;DHT22;29763;50.904;5.530;2022-07-11T15:39:40;26.80;99.90
11067;DHT22;29763;50.904;5.530;2022-07-11T15:42:06;27.30;99.90
11067;DHT22;29763;50.904;5.530;2022-07-11T15:44:31;27.50;99.90
11067;DHT22;29763;50.904;5.530;2022-07-11T15:46:57;27.80;99.90
11067;DHT22;29763;50.904;5.530;2022-07-11T15:49:23;27.50;99.90
11067;DHT22;29763;50.904;5.530;2022-07-11T15:51:49;27.10;99.90
11067;DHT22;29763;50.904;5.530;2022-07-11T15:54:17;26.30;99.90
11067;DHT22;29763;50.904;5.530;2022-07-11T15:56:42;25.70;99.90
11067;DHT22;29763;50.904;5.530;2022-07-11T15:59:08;25.70;99.90
11067;DHT22;29763;50.904;5.530;2022-07-11T16:01:34;26.00;99.90
11067;DHT22;29763;50.904;5.530;2022-07-11T16:04:01;26.40;99.90
11067;DHT22;29763;50.904;5.530;2022-07-11T16:06:27;26.80;99.90
11067;DHT22;29763;50.904;5.530;2022-07-11T16:08:55;27.10;99.90
11067;DHT22;29763;50.904;5.530;2022-07-11T16:11:21;27.40;99.90
11067;DHT22;29763;50.904;5.530;2022-07-11T16:13:47;27.50;99.90
11067;DHT22;29763;50.904;5.530;2022-07-11T16:16:13;27.30;99.90
11067;DHT22;29763;50.904;5.530;2022-07-11T16:18:38;26.90;99.90
11067;DHT22;29763;50.904;5.530;2022-07-11T16:21:04;26.40;99.90
11067;DHT22;29763;50.904;5.530;2022-07-11T16:23:31;26.30;99.90
11067;DHT22;29763;50.904;5.530;2022-07-11T16:25:58;26.30;99.90
11067;DHT22;29763;50.904;5.530;2022-07-11T16:28:24;26.30;99.90
11067;DHT22;29763;50.904;5.530;2022-07-11T16:30:49;26.10;99.90
11067;DHT22;29763;50.904;5.530;2022-07-11T16:33:15;25.90;99.90
11067;DHT22;29763;50.904;5.530;2022-07-11T16:35:41;26.10;99.90
11067;DHT22;29763;50.904;5.530;2022-07-11T16:38:07;26.30;99.90
11067;DHT22;29763;50.904;5.530;2022-07-11T16:40:34;26.30;99.90
11067;DHT22;29763;50.904;5.530;2022-07-11T16:43:18;26.30;99.90
11067;DHT22;29763;50.904;5.530;2022-07-11T16:45:55;26.30;99.90
11067;DHT22;29763;50.904;5.530;2022-07-11T16:48:26;26.40;99.90
11067;DHT22;29763;50.904;5.530;2022-07-11T16:50:54;26.40;99.90
11067;DHT22;29763;50.904;5.530;2022-07-11T16:53:20;26.60;99.90
11067;DHT22;29763;50.904;5.530;2022-07-11T16:55:46;26.80;99.90
11067;DHT22;29763;50.904;5.530;2022-07-11T16:58:13;26.50;99.90
11067;DHT22;29763;50.904;5.530;2022-07-11T17:00:39;26.40;99.90
11067;DHT22;29763;50.904;5.530;2022-07-11T17:03:06;26.00;99.90
11067;DHT22;29763;50.904;5.530;2022-07-11T17:05:38;25.60;99.90
11067;DHT22;29763;50.904;5.530;2022-07-11T17:08:05;25.40;99.90
11067;DHT22;29763;50.904;5.530;2022-07-11T17:10:50;25.20;99.90
11067;DHT22;29763;50.904;5.530;2022-07-11T17:13:16;25.10;99.90
11067;DHT22;29763;50.904;5.530;2022-07-11T17:15:42;25.00;99.90
11067;DHT22;29763;50.904;5.530;2022-07-11T17:18:07;24.80;99.90
11067;DHT22;29763;50.904;5.530;2022-07-11T17:20:33;24.50;99.90
11067;DHT22;29763;50.904;5.530;2022-07-11T17:22:59;24.40;99.90
11067;DHT22;29763;50.904;5.530;2022-07-11T17:25:25;24.30;99.90
11067;DHT22;29763;50.904;5.530;2022-07-11T17:27:51;24.30;99.90
11067;DHT22;29763;50.904;5.530;2022-07-11T17:30:17;24.30;99.90
11067;DHT22;29763;50.904;5.530;2022-07-11T17:32:43;24.20;99.90
11067;DHT22;29763;50.904;5.530;2022-07-11T17:35:09;24.00;99.90
11067;DHT22;29763;50.904;5.530;2022-07-11T17:37:35;23.90;99.90
11067;DHT22;29763;50.904;5.530;2022-07-11T17:40:01;23.80;99.90
11067;DHT22;29763;50.904;5.530;2022-07-11T17:42:27;23.80;99.90
11067;DHT22;29763;50.904;5.530;2022-07-11T17:44:53;23.70;99.90
11067;DHT22;29763;50.904;5.530;2022-07-11T17:47:19;23.50;99.90
11067;DHT22;29763;50.904;5.530;2022-07-11T17:49:45;23.30;99.90
11067;DHT22;29763;50.904;5.530;2022-07-11T17:52:11;23.00;99.90
11067;DHT22;29763;50.904;5.530;2022-07-11T17:54:37;22.80;99.90
11067;DHT22;29763;50.904;5.530;2022-07-11T17:57:03;22.70;99.90
11067;DHT22;29763;50.904;5.530;2022-07-11T17:59:28;22.60;99.90
11067;DHT22;29763;50.904;5.530;2022-07-11T18:01:54;22.60;99.90
11067;DHT22;29763;50.904;5.530;2022-07-11T18:04:20;22.50;99.90
11067;DHT22;29763;50.904;5.530;2022-07-11T18:06:49;22.50;99.90
11067;DHT22;29763;50.904;5.530;2022-07-11T18:09:15;22.40;99.90
11067;DHT22;29763;50.904;5.530;2022-07-11T18:11:46;22.40;99.90
11067;DHT22;29763;50.904;5.530;2022-07-11T18:14:15;22.30;99.90
11067;DHT22;29763;50.904;5.530;2022-07-11T18:16:41;22.20;99.90
11067;DHT22;29763;50.904;5.530;2022-07-11T18:19:07;22.10;99.90
11067;DHT22;29763;50.904;5.530;2022-07-11T18:21:32;22.00;99.90
11067;DHT22;29763;50.904;5.530;2022-07-11T18:23:58;21.90;99.90
11067;DHT22;29763;50.904;5.530;2022-07-11T18:26:25;21.80;99.90
11067;DHT22;29763;50.904;5.530;2022-07-11T18:28:51;21.80;99.90
11067;DHT22;29763;50.904;5.530;2022-07-11T18:31:16;21.70;99.90
11067;DHT22;29763;50.904;5.530;2022-07-11T18:33:42;21.60;99.90
11067;DHT22;29763;50.904;5.530;2022-07-11T18:36:08;21.50;99.90
11067;DHT22;29763;50.904;5.530;2022-07-11T18:38:34;21.40;99.90
11067;DHT22;29763;50.904;5.530;2022-07-11T18:41:19;21.30;99.90
11067;DHT22;29763;50.904;5.530;2022-07-11T18:43:46;21.30;99.90
11067;DHT22;29763;50.904;5.530;2022-07-11T18:46:24;21.10;99.90
11067;DHT22;29763;50.904;5.530;2022-07-11T18:48:50;21.10;99.90
11067;DHT22;29763;50.904;5.530;2022-07-11T18:51:16;21.10;99.90
11067;DHT22;29763;50.904;5.530;2022-07-11T18:53:41;21.00;99.90
11067;DHT22;29763;50.904;5.530;2022-07-11T18:56:08;21.00;99.90
11067;DHT22;29763;50.904;5.530;2022-07-11T18:58:34;21.00;99.90
11067;DHT22;29763;50.904;5.530;2022-07-11T19:01:06;20.90;99.90
11067;DHT22;29763;50.904;5.530;2022-07-11T19:03:32;20.90;99.90
11067;DHT22;29763;50.904;5.530;2022-07-11T19:05:58;20.80;99.90
11067;DHT22;29763;50.904;5.530;2022-07-11T19:08:24;20.80;99.90
11067;DHT22;29763;50.904;5.530;2022-07-11T19:10:54;20.70;99.90
11067;DHT22;29763;50.904;5.530;2022-07-11T19:13:20;20.70;99.90
11067;DHT22;29763;50.904;5.530;2022-07-11T19:15:46;20.60;99.90
11067;DHT22;29763;50.904;5.530;2022-07-11T19:18:14;20.50;99.90
11067;DHT22;29763;50.904;5.530;2022-07-11T19:20:41;20.40;99.90
11067;DHT22;29763;50.904;5.530;2022-07-11T19:23:09;20.40;99.90
11067;DHT22;29763;50.904;5.530;2022-07-11T19:25:38;20.30;99.90
11067;DHT22;29763;50.904;5.530;2022-07-11T19:28:05;20.30;99.90
11067;DHT22;29763;50.904;5.530;2022-07-11T19:30:31;20.20;99.90
11067;DHT22;29763;50.904;5.530;2022-07-11T19:32:57;20.10;99.90
11067;DHT22;29763;50.904;5.530;2022-07-11T19:35:23;20.00;99.90
11067;DHT22;29763;50.904;5.530;2022-07-11T19:37:49;19.90;99.90
11067;DHT22;29763;50.904;5.530;2022-07-11T19:40:15;19.80;99.90
11067;DHT22;29763;50.904;5.530;2022-07-11T19:42:42;19.70;99.90
11067;DHT22;29763;50.904;5.530;2022-07-11T19:45:09;19.60;99.90
11067;DHT22;29763;50.904;5.530;2022-07-11T19:47:39;19.50;99.90
11067;DHT22;29763;50.904;5.530;2022-07-11T19:50:08;19.40;99.90